Time;durP1;ratioP1;P1;durP2;ratioP2;P2;SDS_P1;SDS_P2;PMS_P1;PMS_P2;Temp;Humidity;BMP_temperature;BMP_pressure;BME280_temperature;BME280_humidity;BME280_pressure;Samples;Min_cycle;Max_cycle;Signal;HPM_P1;HPM_P2
2021/01/30 00:02:01;;;;;;;2.15;1.27;;;19.10;44.60;;;;;;6272691;28;20078;-56
2021/01/30 00:05:04;;;;;;;2.03;1.25;;;19.10;44.40;;;;;;6272545;28;20032;-50
2021/01/30 00:08:06;;;;;;;2.83;1.50;;;19.10;44.30;;;;;;6272421;28;20064;-50
2021/01/30 00:11:10;;;;;;;2.25;1.40;;;19.20;44.30;;;;;;6272362;28;20033;-48
2021/01/30 00:14:10;;;;;;;2.15;1.42;;;19.20;44.20;;;;;;6272343;28;20029;-52
2021/01/30 00:17:11;;;;;;;1.90;1.35;;;19.20;44.20;;;;;;6272356;28;20111;-51
2021/01/30 00:20:15;;;;;;;2.55;1.20;;;19.20;44.10;;;;;;6272214;28;20025;-52
2021/01/30 00:23:15;;;;;;;2.22;1.40;;;19.20;44.20;;;;;;6272071;28;20374;-51
2021/01/30 00:26:16;;;;;;;2.40;1.35;;;19.20;44.20;;;;;;6272050;28;20065;-52
2021/01/30 00:29:17;;;;;;;1.15;0.90;;;19.20;44.80;;;;;;6272053;28;20478;-51
2021/01/30 00:32:20;;;;;;;2.10;1.20;;;19.20;44.30;;;;;;6271939;28;20025;-48
2021/01/30 00:35:23;;;;;;;1.98;1.38;;;19.20;44.20;;;;;;6271524;28;20045;-51
2021/01/30 00:38:23;;;;;;;2.55;1.42;;;19.20;44.20;;;;;;6271789;28;20402;-53
2021/01/30 00:41:24;;;;;;;2.33;1.63;;;19.20;44.20;;;;;;6271634;28;20021;-51
2021/01/30 00:44:25;;;;;;;2.28;1.55;;;19.20;44.30;;;;;;6271849;28;20087;-51
2021/01/30 00:47:26;;;;;;;2.38;1.45;;;19.20;44.20;;;;;;6271750;28;20453;-50
2021/01/30 00:50:26;;;;;;;2.35;1.45;;;19.20;44.20;;;;;;6271432;28;20095;-50
2021/01/30 00:53:27;;;;;;;2.13;1.50;;;19.20;44.30;;;;;;6271471;28;20028;-49
2021/01/30 00:56:28;;;;;;;2.22;1.40;;;19.20;44.20;;;;;;6271128;28;20036;-50
2021/01/30 00:59:29;;;;;;;1.75;1.20;;;19.20;44.20;;;;;;6271083;28;20032;-49
2021/01/30 01:02:29;;;;;;;1.80;1.30;;;19.10;44.10;;;;;;6253440;28;20029;-51
2021/01/30 01:05:30;;;;;;;3.05;1.63;;;19.20;44.30;;;;;;6271171;28;20032;-50
2021/01/30 01:08:31;;;;;;;2.20;1.50;;;19.10;44.10;;;;;;6270923;28;20068;-51
2021/01/30 01:11:32;;;;;;;3.00;1.40;;;19.10;44.00;;;;;;6270963;28;20106;-50
2021/01/30 01:14:33;;;;;;;3.55;1.85;;;19.10;44.00;;;;;;6270547;28;20024;-49
2021/01/30 01:17:34;;;;;;;3.15;1.60;;;19.10;44.00;;;;;;6270927;28;20025;-56
2021/01/30 01:20:35;;;;;;;3.13;1.40;;;19.10;44.00;;;;;;6270970;28;20029;-49
2021/01/30 01:23:35;;;;;;;2.45;1.60;;;19.10;44.10;;;;;;6267486;28;20033;-51
2021/01/30 01:26:37;;;;;;;2.00;1.45;;;19.10;44.20;;;;;;6270643;28;20031;-48
2021/01/30 01:29:38;;;;;;;2.13;1.20;;;19.10;44.10;;;;;;6270566;28;20029;-49
2021/01/30 01:32:39;;;;;;;2.95;1.52;;;19.10;44.20;;;;;;6270485;28;20036;-52
2021/01/30 01:35:41;;;;;;;2.63;1.42;;;19.10;44.10;;;;;;6270285;28;20041;-51
2021/01/30 01:38:42;;;;;;;2.58;1.55;;;19.10;44.80;;;;;;6270339;28;20033;-50
2021/01/30 01:41:42;;;;;;;2.65;1.30;;;19.10;44.20;;;;;;6270418;28;20048;-52
2021/01/30 01:44:44;;;;;;;2.72;1.67;;;19.10;44.20;;;;;;6270653;28;20057;-49
2021/01/30 01:47:46;;;;;;;2.35;1.58;;;19.10;44.20;;;;;;6285511;28;20020;-49
2021/01/30 01:50:50;;;;;;;2.33;1.40;;;19.10;44.20;;;;;;6270193;28;20090;-54
2021/01/30 01:53:50;;;;;;;2.53;1.20;;;19.10;44.20;;;;;;6270449;28;20109;-50
2021/01/30 01:56:54;;;;;;;1.98;1.42;;;19.10;44.20;;;;;;6269866;28;20029;-49
2021/01/30 01:59:56;;;;;;;1.75;1.38;;;19.10;44.20;;;;;;6269879;28;20045;-48
2021/01/30 02:02:57;;;;;;;2.58;1.60;;;19.10;44.30;;;;;;6270252;28;20031;-52
2021/01/30 02:06:01;;;;;;;2.55;1.40;;;19.10;44.20;;;;;;6269687;28;20486;-50
2021/01/30 02:09:04;;;;;;;6.60;1.75;;;19.10;44.30;;;;;;6269802;28;20060;-52
2021/01/30 02:12:11;;;;;;;2.17;1.42;;;19.00;44.10;;;;;;6269163;28;20036;-51
2021/01/30 02:15:14;;;;;;;2.60;1.40;;;19.00;44.20;;;;;;6269778;28;20508;-51
2021/01/30 02:18:28;;;;;;;2.35;1.50;;;19.00;44.20;;;;;;6269538;28;20035;-51
2021/01/30 02:22:06;;;;;;;2.67;1.38;;;19.00;44.20;;;;;;6269310;28;20021;-50
2021/01/30 02:25:42;;;;;;;2.90;1.70;;;19.00;44.20;;;;;;6269497;28;20021;-53
2021/01/30 02:28:53;;;;;;;2.58;1.55;;;19.00;44.20;;;;;;6269529;28;20032;-48
2021/01/30 02:32:15;;;;;;;2.92;1.80;;;19.00;44.30;;;;;;6269370;28;20036;-50
2021/01/30 02:35:22;;;;;;;2.03;1.42;;;19.00;44.30;;;;;;6269196;28;20041;-49
2021/01/30 02:38:27;;;;;;;2.80;1.85;;;19.00;44.30;;;;;;6269391;28;20021;-48
2021/01/30 02:41:32;;;;;;;1.60;1.13;;;19.00;44.30;;;;;;6269417;28;20132;-48
2021/01/30 02:44:37;;;;;;;1.98;1.48;;;19.00;44.40;;;;;;6269310;28;20159;-48
2021/01/30 02:47:42;;;;;;;;;;;19.00;44.30;;;;;;6269723;28;20080;-49
2021/01/30 02:50:46;;;;;;;1.73;1.20;;;19.00;44.30;;;;;;6269210;28;20473;-51
2021/01/30 02:53:55;;;;;;;2.67;1.67;;;19.00;44.40;;;;;;6269629;28;20049;-52
2021/01/30 02:56:58;;;;;;;2.50;1.52;;;19.00;44.30;;;;;;6269485;28;20029;-50
2021/01/30 03:00:05;;;;;;;2.35;1.55;;;19.00;44.40;;;;;;6269345;28;20017;-50
2021/01/30 03:03:06;;;;;;;1.90;1.38;;;19.00;44.30;;;;;;6268895;28;20021;-49
2021/01/30 03:06:20;;;;;;;1.92;1.38;;;19.00;44.40;;;;;;6250991;28;20039;-49
2021/01/30 03:09:44;;;;;;;1.70;1.23;;;19.00;44.40;;;;;;6268786;28;20061;-51
2021/01/30 03:13:17;;;;;;;2.13;1.40;;;18.90;44.30;;;;;;6269027;28;20025;-48
2021/01/30 03:16:23;;;;;;;2.33;1.45;;;19.00;44.50;;;;;;6268943;28;20505;-51
2021/01/30 03:19:26;;;;;;;1.60;1.25;;;18.90;44.30;;;;;;6268752;28;20023;-49
2021/01/30 03:22:31;;;;;;;2.10;1.38;;;19.00;44.40;;;;;;6271727;28;20028;-51
2021/01/30 03:25:33;;;;;;;2.00;1.17;;;18.90;44.40;;;;;;6273561;28;20554;-51
2021/01/30 03:28:34;;;;;;;2.03;1.35;;;18.90;44.40;;;;;;6273395;28;20033;-51
2021/01/30 03:31:35;;;;;;;2.10;1.25;;;18.90;44.40;;;;;;6273266;28;20480;-48
2021/01/30 03:34:35;;;;;;;2.33;1.40;;;18.90;44.30;;;;;;6255121;28;20072;-50
2021/01/30 03:37:36;;;;;;;4.72;1.38;;;18.90;44.40;;;;;;6273076;28;20100;-49
2021/01/30 03:40:39;;;;;;;1.88;1.30;;;18.90;44.40;;;;;;6272943;28;20021;-51
2021/01/30 03:43:40;;;;;;;1.60;1.20;;;18.90;44.50;;;;;;6273140;28;20023;-50
2021/01/30 03:46:41;;;;;;;1.63;1.30;;;18.90;44.40;;;;;;6272684;28;20029;-53
2021/01/30 03:49:42;;;;;;;1.90;1.42;;;18.90;44.40;;;;;;6272762;28;20030;-50
2021/01/30 03:52:43;;;;;;;1.70;1.25;;;18.90;44.40;;;;;;6272860;28;20056;-48
2021/01/30 03:55:43;;;;;;;2.33;1.35;;;18.90;44.40;;;;;;6272636;28;20100;-50
2021/01/30 03:58:45;;;;;;;2.00;1.35;;;18.90;44.50;;;;;;6272985;28;20079;-52
2021/01/30 04:01:46;;;;;;;2.50;1.25;;;18.90;44.50;;;;;;6272599;28;20424;-50
2021/01/30 04:04:47;;;;;;;1.42;1.15;;;18.90;44.50;;;;;;6272607;28;20024;-55
2021/01/30 04:07:48;;;;;;;1.55;1.20;;;18.90;44.50;;;;;;6272452;28;20516;-49
2021/01/30 04:10:49;;;;;;;1.75;1.23;;;18.90;44.50;;;;;;6272394;28;20120;-49
2021/01/30 04:13:50;;;;;;;1.70;1.20;;;18.90;44.50;;;;;;6272366;28;20021;-50
2021/01/30 04:16:51;;;;;;;1.58;1.30;;;18.90;44.50;;;;;;6272182;28;20115;-50
2021/01/30 04:19:51;;;;;;;1.77;1.00;;;18.90;44.60;;;;;;6272316;28;20025;-49
2021/01/30 04:22:52;;;;;;;1.75;1.40;;;18.90;44.60;;;;;;6271983;28;20029;-53
2021/01/30 04:25:52;;;;;;;2.28;1.10;;;18.90;44.60;;;;;;6254470;28;20027;-50
2021/01/30 04:28:53;;;;;;;1.95;1.13;;;18.90;44.60;;;;;;6271958;28;20029;-49
2021/01/30 04:31:56;;;;;;;2.83;1.20;;;18.90;44.60;;;;;;6271795;28;20039;-51
2021/01/30 04:34:56;;;;;;;2.05;1.13;;;18.90;44.60;;;;;;6271093;28;20049;-49
2021/01/30 04:37:58;;;;;;;1.48;1.23;;;18.90;44.70;;;;;;6272250;28;20614;-54
2021/01/30 04:41:40;;;;;;;1.90;1.20;;;18.90;44.60;;;;;;6254034;28;20051;-50
2021/01/30 04:45:01;;;;;;;1.85;1.30;;;18.90;44.60;;;;;;6271058;28;20613;-51
2021/01/30 04:48:30;;;;;;;1.75;1.20;;;18.90;44.60;;;;;;6271766;28;20037;-50
2021/01/30 04:51:40;;;;;;;1.77;1.10;;;18.90;44.60;;;;;;6270723;28;20029;-51
2021/01/30 04:54:49;;;;;;;1.55;1.20;;;18.90;44.60;;;;;;6271419;28;20072;-49
2021/01/30 04:57:50;;;;;;;1.95;1.40;;;18.90;44.60;;;;;;6271393;28;20363;-52
2021/01/30 05:01:12;;;;;;;1.60;1.20;;;18.90;44.60;;;;;;6271403;28;20037;-50
2021/01/30 05:04:31;;;;;;;1.60;0.93;;;18.80;44.60;;;;;;6286642;28;20494;-53
2021/01/30 05:07:45;;;;;;;2.72;1.77;;;18.90;44.60;;;;;;6271311;28;20039;-53
2021/01/30 05:10:54;;;;;;;2.22;1.40;;;18.90;44.40;;;;;;6271134;28;20040;-49
2021/01/30 05:14:30;;;;;;;2.40;1.50;;;18.90;44.40;;;;;;6271159;28;20561;-55
2021/01/30 05:17:33;;;;;;;;;;;18.90;44.40;;;;;;6268260;28;20521;-49
2021/01/30 05:20:36;;;;;;;1.67;1.40;;;18.90;44.30;;;;;;6270627;28;19905;-48
2021/01/30 05:23:39;;;;;;;1.83;1.27;;;18.90;44.40;;;;;;6270804;28;20028;-48
2021/01/30 05:27:04;;;;;;;1.95;1.30;;;19.00;44.50;;;;;;6270356;28;20043;-55
2021/01/30 05:30:10;;;;;;;1.83;1.57;;;19.00;44.60;;;;;;6270686;28;20036;-51
2021/01/30 05:33:22;;;;;;;2.67;1.63;;;19.00;44.50;;;;;;6270523;28;20474;-51
2021/01/30 05:36:34;;;;;;;1.75;1.30;;;19.00;44.60;;;;;;6270483;28;20028;-49
2021/01/30 05:40:02;;;;;;;1.90;1.20;;;19.00;44.70;;;;;;6270383;28;20029;-49
2021/01/30 05:43:08;;;;;;;2.30;1.35;;;19.00;44.60;;;;;;6270303;28;20541;-52
2021/01/30 05:46:19;;;;;;;1.83;1.35;;;19.00;44.60;;;;;;6269542;28;20068;-53
2021/01/30 05:49:26;;;;;;;2.58;1.20;;;19.00;44.70;;;;;;6270103;28;20044;-50
2021/01/30 05:52:30;;;;;;;2.38;1.38;;;19.00;44.70;;;;;;6270182;28;20076;-52
2021/01/30 05:55:34;;;;;;;3.80;1.10;;;19.00;44.60;;;;;;6270308;28;20456;-52
2021/01/30 05:58:40;;;;;;;1.60;1.38;;;19.00;44.60;;;;;;6270264;28;20028;-51
2021/01/30 06:01:40;;;;;;;2.10;1.42;;;19.00;44.60;;;;;;6269965;28;20021;-56
2021/01/30 06:04:41;;;;;;;2.65;1.48;;;19.00;44.80;;;;;;6270117;28;20025;-50
2021/01/30 06:07:41;;;;;;;2.25;1.45;;;19.00;44.70;;;;;;6270047;28;20033;-51
2021/01/30 06:10:43;;;;;;;1.83;1.30;;;19.00;44.70;;;;;;6269734;28;20025;-50
2021/01/30 06:14:01;;;;;;;2.13;1.45;;;19.00;44.80;;;;;;6269845;28;20608;-50
2021/01/30 06:17:12;;;;;;;2.58;1.50;;;19.00;44.80;;;;;;6269600;28;20526;-49
2021/01/30 06:20:25;;;;;;;1.92;1.40;;;19.00;44.80;;;;;;6269814;28;20056;-49
2021/01/30 06:23:25;;;;;;;1.67;1.25;;;19.00;44.80;;;;;;6269834;28;20087;-52
2021/01/30 06:26:26;;;;;;;2.28;1.40;;;19.00;44.90;;;;;;6269616;28;20389;-51
2021/01/30 06:29:51;;;;;;;3.53;1.42;;;19.00;44.80;;;;;;6269628;28;20700;-50
2021/01/30 06:32:57;;;;;;;1.95;1.35;;;19.00;44.80;;;;;;6268702;28;20044;-50
2021/01/30 06:36:18;;;;;;;1.60;1.30;;;19.00;44.90;;;;;;6268780;28;20567;-54
2021/01/30 06:39:33;;;;;;;2.28;1.50;;;19.00;44.90;;;;;;6239857;28;20028;-52
2021/01/30 06:42:35;;;;;;;2.85;1.40;;;19.00;44.90;;;;;;6250011;28;20403;-52
2021/01/30 06:45:44;;;;;;;1.70;1.23;;;19.10;44.90;;;;;;6243195;28;20079;-51
2021/01/30 06:48:48;;;;;;;2.38;1.27;;;19.10;45.00;;;;;;6243189;28;20028;-51
2021/01/30 06:51:48;;;;;;;2.63;1.38;;;19.10;44.90;;;;;;6243089;28;20091;-53
2021/01/30 06:55:04;;;;;;;2.63;1.42;;;19.10;45.00;;;;;;6243289;28;20513;-53
2021/01/30 06:58:07;;;;;;;1.65;1.20;;;19.10;44.90;;;;;;6267023;28;20385;-54
2021/01/30 07:01:10;;;;;;;2.10;1.35;;;19.10;44.90;;;;;;6251695;28;20378;-53
2021/01/30 07:04:54;;;;;;;1.98;1.30;;;19.10;45.00;;;;;;6272768;28;20156;-53
2021/01/30 07:08:26;;;;;;;2.45;1.50;;;19.10;44.90;;;;;;6255332;28;20036;-52
2021/01/30 07:11:48;;;;;;;1.70;1.30;;;19.10;45.00;;;;;;6247932;28;20493;-49
2021/01/30 07:15:05;;;;;;;1.95;1.52;;;19.10;45.00;;;;;;6247770;28;20471;-50
2021/01/30 07:18:24;;;;;;;2.40;1.55;;;19.10;45.00;;;;;;6247546;28;20028;-50
2021/01/30 07:21:28;;;;;;;2.35;1.55;;;19.10;44.90;;;;;;6250913;28;20032;-55
2021/01/30 07:24:31;;;;;;;2.15;1.38;;;19.10;44.90;;;;;;6272795;28;20086;-51
2021/01/30 07:27:46;;;;;;;2.70;1.52;;;19.10;45.00;;;;;;6260977;28;20088;-52
2021/01/30 07:30:53;;;;;;;2.65;1.70;;;19.10;45.00;;;;;;6247371;28;20136;-51
2021/01/30 07:34:11;;;;;;;1.92;1.13;;;19.10;44.90;;;;;;6247169;28;20706;-51
2021/01/30 07:37:45;;;;;;;2.25;1.13;;;19.10;45.00;;;;;;6247201;28;20049;-55
2021/01/30 07:41:01;;;;;;;1.65;1.23;;;19.10;45.70;;;;;;6222605;28;20046;-55
2021/01/30 07:44:16;;;;;;;2.22;1.73;;;19.10;45.00;;;;;;6244244;28;20108;-50
2021/01/30 07:47:25;;;;;;;1.50;1.00;;;19.10;45.00;;;;;;6253920;28;20055;-50
2021/01/30 07:50:32;;;;;;;2.00;1.38;;;19.10;45.00;;;;;;6271760;28;20386;-50
2021/01/30 07:53:33;;;;;;;2.03;1.40;;;19.10;45.00;;;;;;6255294;28;20052;-54
2021/01/30 07:56:43;;;;;;;2.00;1.30;;;19.10;45.00;;;;;;6246829;28;20025;-53
2021/01/30 08:00:01;;;;;;;1.27;1.05;;;19.10;45.00;;;;;;6246720;28;20465;-50
2021/01/30 08:03:28;;;;;;;2.55;1.20;;;19.10;45.00;;;;;;6257374;28;20124;-51
2021/01/30 08:06:41;;;;;;;1.60;1.10;;;19.10;45.00;;;;;;6243462;28;20038;-50
2021/01/30 08:09:59;;;;;;;1.92;1.23;;;19.10;45.00;;;;;;6245428;28;20033;-56
2021/01/30 08:13:05;;;;;;;1.55;1.15;;;19.10;45.00;;;;;;6254942;28;20021;-53
2021/01/30 08:16:22;;;;;;;1.95;1.10;;;19.10;44.90;;;;;;6271164;28;20040;-51
2021/01/30 08:19:37;;;;;;;1.50;1.00;;;19.10;45.00;;;;;;6251498;28;20020;-54
2021/01/30 08:22:52;;;;;;;2.13;1.35;;;19.10;45.00;;;;;;6246081;28;20029;-54
2021/01/30 08:25:55;;;;;;;1.45;0.98;;;19.10;45.00;;;;;;6246237;28;20022;-52
2021/01/30 08:29:07;;;;;;;1.38;1.20;;;19.10;45.00;;;;;;6260092;28;20025;-56
2021/01/30 08:32:23;;;;;;;1.35;1.20;;;19.10;45.10;;;;;;6246604;28;20060;-52
2021/01/30 08:35:23;;;;;;;;;;;19.10;45.00;;;;;;6221822;28;20503;-53
2021/01/30 08:38:24;;;;;;;2.38;1.15;;;19.20;45.10;;;;;;6237754;28;19913;-52
2021/01/30 08:41:25;;;;;;;1.95;1.20;;;19.10;45.00;;;;;;6246612;28;20045;-58
2021/01/30 08:44:36;;;;;;;1.73;1.20;;;19.10;45.10;;;;;;6263430;28;20051;-48
2021/01/30 08:48:11;;;;;;;1.50;0.93;;;19.10;45.00;;;;;;6270952;28;20029;-53
2021/01/30 08:51:19;;;;;;;1.35;1.00;;;19.10;45.10;;;;;;6269426;28;20047;-48
2021/01/30 08:54:30;;;;;;;1.70;1.10;;;19.10;45.00;;;;;;6269503;28;20037;-49
2021/01/30 08:57:31;;;;;;;1.23;0.98;;;19.10;45.00;;;;;;6269207;28;20104;-48
2021/01/30 09:00:55;;;;;;;1.85;1.20;;;19.10;45.00;;;;;;6269266;28;20035;-48
2021/01/30 09:04:02;;;;;;;2.33;1.45;;;19.10;45.00;;;;;;6251208;28;20123;-49
2021/01/30 09:07:03;;;;;;;1.90;1.00;;;19.10;45.00;;;;;;6269521;28;20056;-55
2021/01/30 09:10:16;;;;;;;1.23;1.05;;;19.10;45.00;;;;;;6250617;28;20078;-49
2021/01/30 09:13:19;;;;;;;1.48;1.27;;;19.20;45.10;;;;;;6268449;28;20087;-49
2021/01/30 09:16:25;;;;;;;1.17;0.90;;;19.20;45.80;;;;;;6268443;28;20048;-48
2021/01/30 09:19:44;;;;;;;1.75;1.10;;;19.20;45.10;;;;;;6268473;28;20353;-48
2021/01/30 09:23:17;;;;;;;1.23;1.00;;;19.20;45.10;;;;;;6268517;28;20025;-49
2021/01/30 09:26:27;;;;;;;1.40;0.98;;;19.20;45.10;;;;;;6268568;28;20021;-49
2021/01/30 09:29:49;;;;;;;1.10;0.80;;;19.20;45.30;;;;;;6264033;28;20029;-49
2021/01/30 09:32:50;;;;;;;1.58;1.05;;;19.20;45.10;;;;;;6243412;28;20128;-48
2021/01/30 09:36:13;;;;;;;1.30;1.05;;;19.20;45.10;;;;;;6263562;28;20053;-50
2021/01/30 09:39:23;;;;;;;1.67;1.00;;;19.20;45.10;;;;;;6266491;28;20025;-49
2021/01/30 09:42:25;;;;;;;1.40;0.90;;;19.20;45.10;;;;;;6243405;28;20022;-52
2021/01/30 09:45:27;;;;;;;1.42;1.10;;;19.20;45.10;;;;;;6259092;28;20032;-49
2021/01/30 09:48:27;;;;;;;1.25;0.95;;;19.20;45.10;;;;;;6268367;28;20029;-49
2021/01/30 09:51:29;;;;;;;1.52;0.80;;;19.20;45.10;;;;;;6267867;28;20040;-53
2021/01/30 09:54:30;;;;;;;1.42;0.90;;;19.20;45.20;;;;;;6269317;28;20691;-49
2021/01/30 09:57:31;;;;;;;1.30;0.95;;;19.20;45.10;;;;;;6268644;28;20021;-49
2021/01/30 10:00:35;;;;;;;1.95;1.05;;;19.20;45.10;;;;;;6267832;28;20892;-52
2021/01/30 10:03:41;;;;;;;20.95;2.38;;;19.20;45.10;;;;;;6267886;28;20098;-49
2021/01/30 10:06:42;;;;;;;12.48;1.15;;;19.30;45.00;;;;;;6267857;28;20086;-50
2021/01/30 10:09:45;;;;;;;16.90;1.95;;;19.30;45.10;;;;;;6267460;28;20041;-52
2021/01/30 10:12:46;;;;;;;19.60;1.83;;;19.40;44.60;;;;;;6267943;28;20441;-49
2021/01/30 10:15:54;;;;;;;23.98;1.95;;;19.50;44.70;;;;;;6267262;28;20039;-50
2021/01/30 10:19:06;;;;;;;9.15;1.60;;;19.50;44.80;;;;;;6267636;28;20059;-51
2021/01/30 10:22:19;;;;;;;12.10;1.60;;;19.40;44.60;;;;;;6267370;28;20028;-50
2021/01/30 10:25:21;;;;;;;11.02;2.75;;;19.40;44.50;;;;;;6267806;28;20037;-51
2021/01/30 10:28:21;;;;;;;6.95;2.20;;;19.40;44.60;;;;;;6267651;28;20429;-49
2021/01/30 10:31:31;;;;;;;11.77;2.67;;;19.40;44.60;;;;;;6263502;28;20041;-51
2021/01/30 10:34:38;;;;;;;15.30;2.85;;;19.40;44.60;;;;;;6260641;28;20212;-50
2021/01/30 10:38:07;;;;;;;12.82;2.90;;;19.40;44.60;;;;;;6265198;28;20476;-49
2021/01/30 10:41:17;;;;;;;11.25;3.38;;;19.40;44.70;;;;;;6246040;28;20033;-50
2021/01/30 10:44:26;;;;;;;10.60;3.30;;;19.40;44.70;;;;;;6242452;28;20025;-49
2021/01/30 10:47:27;;;;;;;11.98;3.47;;;19.40;44.70;;;;;;6265737;28;20120;-51
2021/01/30 10:50:33;;;;;;;15.13;3.97;;;19.40;44.70;;;;;;6267237;28;20774;-48
2021/01/30 10:53:41;;;;;;;9.85;3.50;;;19.40;44.70;;;;;;6267372;28;20079;-49
2021/01/30 10:56:41;;;;;;;11.90;3.65;;;19.40;44.60;;;;;;6267425;28;20025;-49
2021/01/30 10:59:49;;;;;;;12.48;4.20;;;19.40;44.80;;;;;;6256546;28;20387;-48
2021/01/30 11:02:50;;;;;;;12.38;4.40;;;19.40;44.70;;;;;;6242278;28;20076;-49
2021/01/30 11:05:52;;;;;;;16.02;4.15;;;19.40;44.70;;;;;;6248986;28;20049;-50
2021/01/30 11:08:53;;;;;;;12.80;3.88;;;19.40;44.80;;;;;;6267253;28;20025;-50
2021/01/30 11:12:14;;;;;;;14.38;4.15;;;19.40;44.70;;;;;;6266339;28;20037;-50
2021/01/30 11:15:20;;;;;;;9.45;3.92;;;19.40;44.80;;;;;;6266832;28;20060;-50
2021/01/30 11:18:27;;;;;;;8.93;3.67;;;19.40;45.50;;;;;;6267127;28;20124;-51
2021/01/30 11:21:38;;;;;;;15.52;4.07;;;19.40;44.80;;;;;;6266986;28;20029;-48
2021/01/30 11:24:46;;;;;;;11.35;3.88;;;19.40;44.70;;;;;;6268000;28;20021;-49
2021/01/30 11:27:47;;;;;;;9.20;3.50;;;19.40;44.80;;;;;;6266938;28;20029;-52
2021/01/30 11:30:48;;;;;;;9.23;3.47;;;19.40;44.70;;;;;;6253852;28;20033;-48
2021/01/30 11:33:51;;;;;;;10.05;3.88;;;19.40;44.70;;;;;;6266388;28;20048;-51
2021/01/30 11:36:54;;;;;;;10.52;3.30;;;19.40;44.70;;;;;;6266640;28;20043;-51
2021/01/30 11:39:54;;;;;;;6.90;2.88;;;19.40;44.80;;;;;;6266350;28;20022;-51
2021/01/30 11:42:55;;;;;;;8.30;3.30;;;19.40;44.80;;;;;;6248743;28;20021;-50
2021/01/30 11:45:56;;;;;;;8.93;3.15;;;19.40;44.70;;;;;;6271667;28;20363;-53
2021/01/30 11:48:58;;;;;;;9.10;2.95;;;19.40;44.80;;;;;;6271873;28;20073;-52
2021/01/30 11:51:59;;;;;;;11.10;3.00;;;19.40;44.80;;;;;;6253236;28;20059;-49
2021/01/30 11:55:02;;;;;;;11.45;3.08;;;19.40;44.80;;;;;;6270857;28;20025;-53
2021/01/30 11:58:03;;;;;;;7.63;2.78;;;19.40;44.80;;;;;;6252824;28;20021;-49
2021/01/30 12:01:03;;;;;;;6.75;2.90;;;19.40;44.80;;;;;;6270210;28;20020;-49
2021/01/30 12:04:04;;;;;;;6.07;2.88;;;19.40;44.80;;;;;;6246208;28;20034;-56
2021/01/30 12:07:05;;;;;;;5.55;2.60;;;19.40;44.80;;;;;;6253764;28;20031;-50
2021/01/30 12:10:07;;;;;;;7.43;2.50;;;19.40;44.90;;;;;;6270298;28;20095;-48
2021/01/30 12:13:08;;;;;;;6.60;3.03;;;19.40;44.90;;;;;;6270149;28;20029;-50
2021/01/30 12:16:09;;;;;;;6.90;3.13;;;19.40;44.80;;;;;;6252269;28;20110;-48
2021/01/30 12:19:09;;;;;;;6.75;2.72;;;19.40;44.90;;;;;;6270398;28;20028;-49
2021/01/30 12:22:10;;;;;;;13.23;2.60;;;19.40;44.90;;;;;;6270085;28;20021;-49
2021/01/30 12:25:11;;;;;;;6.18;2.42;;;19.40;44.80;;;;;;6270465;28;20155;-52
2021/01/30 12:28:21;;;;;;;9.93;2.60;;;19.40;44.80;;;;;;6269901;28;20025;-50
2021/01/30 12:31:22;;;;;;;6.07;2.55;;;19.40;44.70;;;;;;6249602;28;20036;-49
2021/01/30 12:34:22;;;;;;;5.53;2.75;;;19.30;44.80;;;;;;6268027;28;20049;-49
2021/01/30 12:37:23;;;;;;;5.65;2.83;;;19.40;44.80;;;;;;6269615;28;20029;-49
2021/01/30 12:40:27;;;;;;;6.10;2.40;;;19.40;44.80;;;;;;6269706;28;20150;-49
2021/01/30 12:43:28;;;;;;;4.97;2.28;;;19.40;44.80;;;;;;6269540;28;20053;-49
2021/01/30 12:46:43;;;;;;;4.22;2.08;;;19.30;44.80;;;;;;6269937;28;20393;-48
2021/01/30 12:49:44;;;;;;;5.72;2.65;;;19.30;44.80;;;;;;6269621;28;20029;-49
2021/01/30 12:52:45;;;;;;;3.88;2.00;;;19.30;44.80;;;;;;6269597;28;20071;-49
2021/01/30 12:55:45;;;;;;;7.57;2.45;;;19.30;44.80;;;;;;6268961;28;20033;-49
2021/01/30 12:58:46;;;;;;;3.65;2.28;;;19.30;44.80;;;;;;6269224;28;20032;-55
2021/01/30 13:01:46;;;;;;;3.78;2.05;;;19.30;44.80;;;;;;6250800;28;20021;-51
2021/01/30 13:04:47;;;;;;;3.15;1.85;;;19.30;44.80;;;;;;6263253;28;20052;-49
2021/01/30 13:07:48;;;;;;;6.07;2.40;;;19.30;44.80;;;;;;6269443;28;20036;-49
2021/01/30 13:10:49;;;;;;;3.75;2.03;;;19.30;44.80;;;;;;6269434;28;20039;-52
2021/01/30 13:13:49;;;;;;;3.80;2.03;;;19.30;44.80;;;;;;6269063;28;20474;-48
2021/01/30 13:16:51;;;;;;;3.08;1.77;;;19.30;44.80;;;;;;6268693;28;20033;-48
2021/01/30 13:19:52;;;;;;;4.45;1.70;;;19.30;44.80;;;;;;6269364;28;20040;-50
2021/01/30 13:22:54;;;;;;;4.10;2.00;;;19.30;44.80;;;;;;6268874;28;20040;-51
2021/01/30 13:25:55;;;;;;;2.85;1.90;;;19.30;44.90;;;;;;6268685;28;20044;-49
2021/01/30 13:28:56;;;;;;;3.03;1.60;;;19.30;44.80;;;;;;6267952;28;20397;-51
2021/01/30 13:31:57;;;;;;;2.60;1.67;;;19.30;44.90;;;;;;6244113;28;20065;-50
2021/01/30 13:34:58;;;;;;;2.80;1.80;;;19.30;44.90;;;;;;6258829;28;20068;-50
2021/01/30 13:38:02;;;;;;;11.02;1.90;;;19.30;44.90;;;;;;6268606;28;20021;-52
2021/01/30 13:41:03;;;;;;;3.95;2.15;;;19.30;45.00;;;;;;6249947;28;20025;-53
2021/01/30 13:44:04;;;;;;;4.85;1.88;;;19.30;44.90;;;;;;6252214;28;20025;-48
2021/01/30 13:47:06;;;;;;;5.47;2.00;;;19.30;44.80;;;;;;6268582;28;20033;-50
2021/01/30 13:50:09;;;;;;;2.45;1.40;;;19.30;44.90;;;;;;6268445;28;20075;-49
2021/01/30 13:53:10;;;;;;;3.28;1.60;;;19.30;44.90;;;;;;6268795;28;20029;-51
2021/01/30 13:56:11;;;;;;;3.47;1.70;;;19.30;44.90;;;;;;6268042;28;20040;-53
2021/01/30 13:59:12;;;;;;;2.25;1.38;;;19.30;44.90;;;;;;6264683;28;20402;-50
2021/01/30 14:02:12;;;;;;;4.22;1.52;;;19.30;44.90;;;;;;6243528;28;20026;-48
2021/01/30 14:05:13;;;;;;;2.80;1.42;;;19.30;44.90;;;;;;6267537;28;20016;-49
2021/01/30 14:08:14;;;;;;;2.58;1.60;;;19.30;44.90;;;;;;6267660;28;20029;-50
2021/01/30 14:11:14;;;;;;;3.55;1.50;;;19.30;45.00;;;;;;6267676;28;20036;-50
2021/01/30 14:14:16;;;;;;;2.45;1.30;;;19.30;45.00;;;;;;6267297;28;20020;-51
2021/01/30 14:17:16;;;;;;;5.30;1.60;;;19.30;45.00;;;;;;6267543;28;20087;-52
2021/01/30 14:20:18;;;;;;;3.70;1.58;;;19.30;45.00;;;;;;6267529;28;20020;-51
2021/01/30 14:23:18;;;;;;;2.33;1.20;;;19.30;45.00;;;;;;6267724;28;20627;-52
2021/01/30 14:26:21;;;;;;;3.10;1.42;;;19.30;45.00;;;;;;6267424;28;20028;-49
2021/01/30 14:29:21;;;;;;;1.33;1.02;;;19.30;45.00;;;;;;6266494;28;20028;-49
2021/01/30 14:32:22;;;;;;;2.75;1.30;;;19.30;45.00;;;;;;6267413;28;20025;-49
2021/01/30 14:35:25;;;;;;;1.88;1.40;;;19.30;45.00;;;;;;6267016;28;20045;-53
2021/01/30 14:38:25;;;;;;;2.30;1.20;;;19.30;45.00;;;;;;6267146;28;20112;-49
2021/01/30 14:41:26;;;;;;;2.72;1.40;;;19.30;45.10;;;;;;6267001;28;20429;-49
2021/01/30 14:44:27;;;;;;;1.80;1.20;;;19.30;45.10;;;;;;6267280;28;20032;-50
2021/01/30 14:47:28;;;;;;;2.28;1.02;;;19.30;45.00;;;;;;6267280;28;20029;-50
2021/01/30 14:50:29;;;;;;;1.92;1.30;;;19.30;45.00;;;;;;6266933;28;20029;-49
2021/01/30 14:53:29;;;;;;;3.30;1.35;;;19.30;45.10;;;;;;6267323;28;20048;-55
2021/01/30 14:56:30;;;;;;;2.50;1.10;;;19.30;45.00;;;;;;6260908;28;20029;-51
2021/01/30 14:59:30;;;;;;;1.92;0.90;;;19.30;45.00;;;;;;6242451;28;20041;-49
2021/01/30 15:02:31;;;;;;;2.53;1.30;;;19.30;45.10;;;;;;6224241;28;20037;-52
2021/01/30 15:05:32;;;;;;;3.40;1.13;;;19.30;45.00;;;;;;6249759;28;20589;-49
2021/01/30 15:08:33;;;;;;;1.80;1.10;;;19.30;45.00;;;;;;6266993;28;20071;-50
2021/01/30 15:11:33;;;;;;;3.03;1.30;;;19.30;45.10;;;;;;6267342;28;20108;-49
2021/01/30 15:14:34;;;;;;;1.65;1.17;;;19.30;45.10;;;;;;6267327;28;20029;-51
2021/01/30 15:17:36;;;;;;;1.40;0.90;;;19.30;45.10;;;;;;6268334;28;20036;-53
2021/01/30 15:20:38;;;;;;;1.67;0.85;;;19.30;45.10;;;;;;6271643;28;20644;-50
2021/01/30 15:23:40;;;;;;;2.00;1.25;;;19.30;45.00;;;;;;6272057;28;20420;-50
2021/01/30 15:26:40;;;;;;;1.63;1.20;;;19.30;45.00;;;;;;6254328;28;20056;-49
2021/01/30 15:29:41;;;;;;;2.85;1.10;;;19.30;45.00;;;;;;6265159;28;20457;-51
2021/01/30 15:32:41;;;;;;;1.63;1.10;;;19.30;45.10;;;;;;6267914;28;20036;-56
2021/01/30 15:35:42;;;;;;;2.38;1.17;;;19.30;45.10;;;;;;6271132;28;20449;-50
2021/01/30 15:38:42;;;;;;;1.25;0.90;;;19.30;45.10;;;;;;6271369;28;20703;-56
2021/01/30 15:41:43;;;;;;;1.58;0.95;;;19.30;45.10;;;;;;6271212;28;20028;-52
2021/01/30 15:44:44;;;;;;;1.58;1.00;;;19.30;45.10;;;;;;6253039;28;20028;-55
2021/01/30 15:47:45;;;;;;;1.45;0.95;;;19.30;45.10;;;;;;6271624;28;20545;-52
2021/01/30 15:50:46;;;;;;;1.50;0.98;;;19.30;45.10;;;;;;6271222;28;20025;-56
2021/01/30 15:53:46;;;;;;;1.52;0.80;;;19.30;45.10;;;;;;6271421;28;20638;-51
2021/01/30 15:56:47;;;;;;;2.42;1.00;;;19.30;45.00;;;;;;6270607;28;20482;-53
2021/01/30 15:59:47;;;;;;;2.10;0.90;;;19.30;45.10;;;;;;6270689;28;20029;-51
2021/01/30 16:02:49;;;;;;;1.92;1.27;;;19.30;45.20;;;;;;6270384;28;20036;-51
2021/01/30 16:05:50;;;;;;;2.45;0.73;;;19.30;45.10;;;;;;6271339;28;20200;-56